Angola, LA (70712)

8:40 AM CST on February 10, 2016 (GMT -0600)
False River | | Change Station
CLOSE
Current Station
Airport
Location: New Roads False River Regiona,
Elevation: 39 ft
Nearby Weather Stations

Elev 39 ft 30.72 °N, 91.48 °W | Updated 25 minutes ago

Clear
Clear
42 °F
Feels Like 39 °F
N
5
Wind Variable Wind from NW

Today
High -- | Low -- °F
--% Chance of Precip.
Yesterday
High -- | Low -- °F
Precip. -- in
Pressure 30.38 in
Visibility 10.0 miles
Clouds Clear
Windchill 39 °F
Dew Point 26 °F
Humidity 52%
Rainfall 0.00 in
Snow Depth Not available.
6:51 AM 5:49 PM
Waxing Crescent, 5% visible
METAR KHZR 101415Z AUTO 31004KT 10SM CLR 06/M04 A3038 RMK AO2 T00561036
Pressure 30.38 in
Visibility 10.0 miles
Clouds Clear
Windchill 39 °F
Dew Point 26 °F
Humidity 52%
Rainfall 0.00 in
Snow Depth Not available.
6:51 AM 5:49 PM
Waxing Crescent, 5% visible
METAR KHZR 101415Z AUTO 31004KT 10SM CLR 06/M04 A3038 RMK AO2 T00561036

10-Day Weather Forecast

Almanac

Astronomy

Feb. 10, 2016 Rise Set
Actual Time
Civil Twilight
Nautical Twilight
Astronomical Twilight
Moon
Length of Visible Light
Length of Day
Tomorrow will be .
, % of the Moon is Illuminated

Today's Extremes

State Highs State Lows

Community

WunderPhotos

Upload Photos

1,891,855 photos uploaded!

WunderBlog® & News

Nearby

Air Quality

  Air Quality AQ Index Pollutant
Not available.

Snow Depth

Station Depth Elevation

Earthquake Activity

City Distance Mag. Time & Date
Minimum magnitude displayed is 2.5.

Coastal Water Temperatures

Place Temperature

Stations

Nearby Weather Stations

Station Location Temp. Windchill Dew Point Humidity Wind Precip. Elev Updated Type
                   

Watches & Warnings

There are currently no watches in effect.